Time;durP1;ratioP1;P1;durP2;ratioP2;P2;SDS_P1;SDS_P2;PMS_P1;PMS_P2;Temp;Humidity;BMP_temperature;BMP_pressure;BME280_temperature;BME280_humidity;BME280_pressure;Samples;Min_cycle;Max_cycle;Signal;HPM_P1;HPM_P2
2022/10/16 00:00:33;;;;;;;1.93;1.30;;;16.20;99.40;;;;;;5089528;28;20506;-74
2022/10/16 00:03:01;;;;;;;3.30;1.30;;;16.20;99.40;;;;;;5086190;28;20833;-74
2022/10/16 00:05:28;;;;;;;5.30;1.50;;;16.20;99.40;;;;;;5083793;28;20452;-74
2022/10/16 00:07:55;;;;;;;2.27;1.30;;;16.20;99.30;;;;;;5089587;28;20460;-74
2022/10/16 00:10:21;;;;;;;2.23;1.23;;;16.20;99.30;;;;;;5109365;28;20480;-74
2022/10/16 00:12:48;;;;;;;1.43;0.93;;;16.20;99.20;;;;;;5107230;28;20478;-74
2022/10/16 00:15:15;;;;;;;1.33;1.23;;;16.20;99.20;;;;;;5109874;28;20478;-74
2022/10/16 00:17:42;;;;;;;4.93;1.30;;;16.20;99.20;;;;;;5110784;28;20447;-73
2022/10/16 00:20:10;;;;;;;3.93;1.33;;;16.10;99.20;;;;;;5092068;28;20507;-74
2022/10/16 00:22:37;;;;;;;1.23;0.90;;;16.20;99.20;;;;;;5091540;28;20461;-74
2022/10/16 00:25:04;;;;;;;4.87;1.40;;;16.10;99.10;;;;;;5092455;28;20492;-73
2022/10/16 00:27:31;;;;;;;6.43;1.30;;;16.10;99.10;;;;;;5090514;28;20461;-74
2022/10/16 00:29:58;;;;;;;3.80;1.60;;;16.10;99.00;;;;;;5108575;28;20459;-74
2022/10/16 00:32:25;;;;;;;8.33;1.47;;;16.10;99.10;;;;;;5111818;28;20432;-73
2022/10/16 00:34:53;;;;;;;4.20;1.60;;;16.10;99.10;;;;;;5095367;28;20451;-74
2022/10/16 00:37:21;;;;;;;3.10;1.57;;;16.10;99.00;;;;;;5110473;28;20467;-74
2022/10/16 00:39:48;;;;;;;5.03;1.40;;;16.10;99.00;;;;;;5094825;28;20494;-74
2022/10/16 00:42:17;;;;;;;1.30;1.10;;;16.00;99.10;;;;;;5094445;28;20461;-73
2022/10/16 00:44:49;;;;;;;2.50;1.30;;;16.00;99.10;;;;;;5094205;28;20464;-74
2022/10/16 00:47:22;;;;;;;2.57;1.13;;;16.00;99.20;;;;;;5094715;28;20484;-74
2022/10/16 00:49:51;;;;;;;1.73;1.20;;;16.00;99.10;;;;;;5094896;28;20496;-74
2022/10/16 00:52:18;;;;;;;2.67;1.27;;;16.00;99.10;;;;;;5096130;28;20452;-73
2022/10/16 00:54:47;;;;;;;3.50;1.30;;;16.00;99.00;;;;;;5112654;28;20463;-74
2022/10/16 00:57:15;;;;;;;2.63;1.80;;;15.90;99.00;;;;;;5114080;28;20460;-74
2022/10/16 00:59:43;;;;;;;5.10;1.50;;;15.90;99.00;;;;;;5096926;28;20491;-73
2022/10/16 01:02:14;;;;;;;3.50;1.43;;;16.00;99.10;;;;;;5095033;28;20455;-73
2022/10/16 01:04:45;;;;;;;2.20;1.20;;;15.90;99.10;;;;;;5095285;28;20474;-76
2022/10/16 01:07:23;;;;;;;3.30;1.63;;;15.80;99.10;;;;;;5098369;28;20460;-73
2022/10/16 01:10:00;;;;;;;1.20;0.90;;;15.90;99.10;;;;;;5094740;28;20546;-74
2022/10/16 01:12:36;;;;;;;2.53;1.47;;;15.90;99.20;;;;;;5094538;28;20431;-74
2022/10/16 01:15:11;;;;;;;4.20;1.10;;;15.80;99.20;;;;;;5092997;28;20512;-73
2022/10/16 01:17:43;;;;;;;5.87;1.20;;;15.80;99.20;;;;;;5093166;28;20464;-73
2022/10/16 01:20:18;;;;;;;5.07;1.40;;;15.80;99.20;;;;;;5093338;28;20488;-74
2022/10/16 01:22:55;;;;;;;5.60;1.37;;;15.80;99.10;;;;;;5102384;28;20460;-74
2022/10/16 01:25:33;;;;;;;1.77;1.30;;;15.80;99.10;;;;;;5096262;28;20466;-74
2022/10/16 01:28:03;;;;;;;2.73;1.20;;;15.80;99.10;;;;;;5093519;28;20448;-74
2022/10/16 01:30:33;;;;;;;1.70;1.20;;;15.80;99.10;;;;;;5113186;28;20483;-74
2022/10/16 01:33:04;;;;;;;2.87;1.20;;;15.80;99.10;;;;;;5104554;28;20457;-73
2022/10/16 01:35:36;;;;;;;5.33;1.10;;;15.80;99.20;;;;;;5104530;28;20468;-73
2022/10/16 01:38:06;;;;;;;2.80;1.30;;;15.80;99.20;;;;;;5114812;28;20437;-74
2022/10/16 01:40:36;;;;;;;3.43;1.33;;;15.80;99.20;;;;;;5101555;28;20492;-74
2022/10/16 01:43:08;;;;;;;1.27;1.17;;;15.80;99.20;;;;;;5106235;28;20464;-73
2022/10/16 01:45:37;;;;;;;3.63;1.00;;;15.80;99.10;;;;;;5105152;28;20455;-73
2022/10/16 01:48:07;;;;;;;3.03;1.30;;;15.80;99.10;;;;;;5098217;28;20457;-73
2022/10/16 01:50:39;;;;;;;1.37;1.10;;;15.80;99.00;;;;;;5100141;28;20500;-74
2022/10/16 01:53:08;;;;;;;4.50;1.30;;;15.80;98.90;;;;;;5111856;28;20474;-73
2022/10/16 01:55:41;;;;;;;4.20;1.30;;;15.80;99.00;;;;;;5111430;28;20463;-74
2022/10/16 01:58:10;;;;;;;1.13;1.03;;;15.80;98.80;;;;;;5103392;28;20513;-72
2022/10/16 02:00:38;;;;;;;2.60;1.33;;;15.80;98.80;;;;;;5104984;28;20488;-73
2022/10/16 02:03:07;;;;;;;1.57;0.90;;;15.80;98.90;;;;;;5099452;28;20961;-73
2022/10/16 02:05:38;;;;;;;0.90;0.90;;;15.80;98.80;;;;;;5093252;28;20491;-73
2022/10/16 02:08:05;;;;;;;4.43;1.10;;;15.80;98.50;;;;;;5094093;28;20436;-73
2022/10/16 02:10:33;;;;;;;5.77;1.10;;;15.80;98.50;;;;;;5093686;28;20487;-73
2022/10/16 02:13:04;;;;;;;1.23;1.13;;;15.80;98.30;;;;;;5093746;28;20970;-73
2022/10/16 02:15:32;;;;;;;2.50;1.00;;;15.80;98.20;;;;;;5112305;28;20527;-74
2022/10/16 02:17:59;;;;;;;2.07;1.67;;;15.80;98.30;;;;;;5115444;28;20511;-73
2022/10/16 02:20:33;;;;;;;1.53;0.97;;;15.70;98.00;;;;;;5107520;28;20481;-74
2022/10/16 02:23:01;;;;;;;1.33;0.70;;;15.80;97.80;;;;;;5099792;28;20451;-74
2022/10/16 02:25:32;;;;;;;1.13;0.70;;;15.80;97.70;;;;;;5113200;28;20460;-74
2022/10/16 02:28:03;;;;;;;1.70;0.90;;;15.80;97.50;;;;;;5111919;28;20444;-74
2022/10/16 02:30:35;;;;;;;1.63;0.60;;;15.70;97.30;;;;;;5114245;28;20460;-74
2022/10/16 02:33:05;;;;;;;5.63;0.87;;;15.80;97.30;;;;;;5093363;28;20465;-74
2022/10/16 02:35:33;;;;;;;2.77;0.97;;;15.80;97.20;;;;;;5104704;28;20438;-73
2022/10/16 02:38:00;;;;;;;1.20;1.00;;;15.80;97.20;;;;;;5101907;28;20445;-74
2022/10/16 02:40:27;;;;;;;2.00;0.87;;;15.80;96.90;;;;;;5091858;28;20487;-74
2022/10/16 02:42:55;;;;;;;2.53;0.60;;;15.80;96.70;;;;;;5103921;28;20468;-74
2022/10/16 02:45:23;;;;;;;1.57;1.17;;;15.80;96.70;;;;;;5095350;28;20555;-75
2022/10/16 02:47:51;;;;;;;5.47;1.30;;;15.90;96.60;;;;;;5107452;28;20963;-74
2022/10/16 02:50:18;;;;;;;2.20;0.77;;;15.80;96.40;;;;;;5092626;28;20472;-74
2022/10/16 02:52:45;;;;;;;4.53;1.10;;;15.90;96.30;;;;;;5092446;28;20445;-73
2022/10/16 02:55:11;;;;;;;2.00;0.90;;;15.80;96.20;;;;;;5106455;28;20464;-75
2022/10/16 02:57:40;;;;;;;3.47;0.60;;;15.80;96.10;;;;;;5093302;28;20456;-74
2022/10/16 03:00:07;;;;;;;1.13;0.70;;;15.80;96.20;;;;;;5092758;28;20492;-74
2022/10/16 03:02:34;;;;;;;1.00;0.67;;;15.80;96.10;;;;;;5091763;28;20452;-77
2022/10/16 03:05:02;;;;;;;0.93;0.60;;;15.80;96.60;;;;;;5091553;28;20457;-74
2022/10/16 03:07:29;;;;;;;1.47;1.30;;;15.80;96.30;;;;;;5091399;28;20553;-73
2022/10/16 03:09:56;;;;;;;3.37;1.30;;;15.80;96.10;;;;;;5091241;28;20473;-73
2022/10/16 03:12:23;;;;;;;2.40;0.80;;;15.80;96.10;;;;;;5089229;28;20532;-74
2022/10/16 03:14:49;;;;;;;1.80;0.60;;;15.80;96.10;;;;;;5090262;28;20468;-74
2022/10/16 03:17:17;;;;;;;1.77;0.63;;;15.80;96.10;;;;;;5091135;28;20452;-76
2022/10/16 03:19:44;;;;;;;0.90;0.60;;;15.80;96.30;;;;;;5091672;28;20503;-73
2022/10/16 03:22:12;;;;;;;2.00;1.07;;;15.80;96.20;;;;;;5090968;28;20820;-74
2022/10/16 03:24:38;;;;;;;2.80;1.00;;;15.80;96.40;;;;;;5091419;28;20449;-73
2022/10/16 03:27:05;;;;;;;2.73;1.00;;;15.70;96.50;;;;;;5090174;28;20479;-74
2022/10/16 03:29:32;;;;;;;1.33;0.70;;;15.70;96.60;;;;;;5092161;28;20488;-74
2022/10/16 03:31:59;;;;;;;1.00;0.80;;;15.70;96.70;;;;;;5091219;28;20468;-74
2022/10/16 03:34:26;;;;;;;2.83;0.87;;;15.70;96.80;;;;;;5091941;28;20452;-74
2022/10/16 03:36:53;;;;;;;4.00;1.07;;;15.70;96.80;;;;;;5094880;28;20461;-74
2022/10/16 03:39:21;;;;;;;2.73;0.60;;;15.70;97.00;;;;;;5092096;28;20483;-73
2022/10/16 03:41:48;;;;;;;2.43;0.73;;;15.70;97.00;;;;;;5098526;28;20471;-74
2022/10/16 03:44:14;;;;;;;7.53;1.00;;;15.70;97.00;;;;;;5112456;28;20518;-73
2022/10/16 03:46:41;;;;;;;4.40;1.17;;;15.70;97.00;;;;;;5092758;28;20467;-74
2022/10/16 03:49:08;;;;;;;6.43;1.20;;;15.60;97.00;;;;;;5092170;28;20478;-74
2022/10/16 03:51:35;;;;;;;2.10;1.00;;;15.60;97.10;;;;;;5094985;28;20464;-74
2022/10/16 03:54:02;;;;;;;2.00;1.13;;;15.60;97.20;;;;;;5091776;28;20455;-74
2022/10/16 03:56:30;;;;;;;4.87;1.20;;;15.60;97.20;;;;;;5094307;28;20468;-74
2022/10/16 03:58:57;;;;;;;3.70;1.00;;;15.60;97.20;;;;;;5092143;28;20449;-74
2022/10/16 04:01:23;;;;;;;5.60;1.87;;;15.60;97.30;;;;;;5091770;28;20483;-74
2022/10/16 04:03:50;;;;;;;1.43;1.03;;;15.60;97.30;;;;;;5091778;28;20467;-74
2022/10/16 04:06:17;;;;;;;2.10;1.13;;;15.50;97.30;;;;;;5107057;28;20454;-73
2022/10/16 04:08:44;;;;;;;1.63;1.10;;;15.50;97.80;;;;;;5091370;28;20459;-74
2022/10/16 04:11:11;;;;;;;2.90;1.00;;;15.50;97.50;;;;;;5105748;28;20478;-74
2022/10/16 04:13:39;;;;;;;3.00;0.93;;;15.50;97.70;;;;;;5092248;28;20451;-74
2022/10/16 04:16:06;;;;;;;3.10;1.00;;;15.50;97.80;;;;;;5091269;28;20530;-74
2022/10/16 04:18:33;;;;;;;3.87;1.10;;;15.50;97.80;;;;;;5091458;28;20448;-73
2022/10/16 04:21:03;;;;;;;2.53;1.20;;;15.50;97.90;;;;;;5090375;28;20518;-74
2022/10/16 04:23:30;;;;;;;5.53;1.33;;;15.50;98.00;;;;;;5091184;28;20435;-73
2022/10/16 04:25:57;;;;;;;2.10;0.83;;;15.50;98.00;;;;;;5105800;28;20467;-73
2022/10/16 04:28:24;;;;;;;4.00;1.20;;;15.50;98.00;;;;;;5112147;28;20525;-74
2022/10/16 04:30:52;;;;;;;1.30;0.97;;;15.50;98.10;;;;;;5096866;28;20475;-74
2022/10/16 04:33:18;;;;;;;1.87;1.13;;;15.40;98.10;;;;;;5090779;28;20469;-74
2022/10/16 04:35:45;;;;;;;2.00;0.73;;;15.40;98.10;;;;;;5091118;28;20452;-74
2022/10/16 04:38:12;;;;;;;1.27;1.03;;;15.40;98.20;;;;;;5105314;28;20467;-74
2022/10/16 04:40:39;;;;;;;1.90;1.40;;;15.40;98.20;;;;;;5099430;28;20518;-74
2022/10/16 04:43:07;;;;;;;1.53;1.00;;;15.40;98.40;;;;;;5090575;28;20456;-74
2022/10/16 04:45:34;;;;;;;3.53;1.13;;;15.40;98.30;;;;;;5090645;28;21027;-74
2022/10/16 04:48:02;;;;;;;2.30;1.30;;;15.40;98.30;;;;;;5102687;28;20487;-74
2022/10/16 04:50:28;;;;;;;2.13;0.90;;;15.40;98.40;;;;;;5103277;28;20473;-73
2022/10/16 04:52:55;;;;;;;1.33;0.93;;;15.40;98.30;;;;;;5106720;28;20470;-73
2022/10/16 04:55:22;;;;;;;1.53;1.10;;;15.50;98.50;;;;;;5109833;28;20464;-74
2022/10/16 04:57:49;;;;;;;4.30;1.07;;;15.50;98.40;;;;;;5095284;28;20471;-74
2022/10/16 05:00:16;;;;;;;3.77;1.27;;;15.40;98.40;;;;;;5090744;28;20565;-74
2022/10/16 05:02:43;;;;;;;2.80;0.80;;;15.40;98.40;;;;;;5090719;28;20454;-73
2022/10/16 05:05:11;;;;;;;1.13;1.03;;;15.40;98.50;;;;;;5089028;28;20487;-75
2022/10/16 05:07:38;;;;;;;2.67;1.10;;;15.40;98.60;;;;;;5103238;28;20468;-73
2022/10/16 05:10:05;;;;;;;3.27;1.53;;;15.40;98.60;;;;;;5083469;28;20490;-72
2022/10/16 05:12:33;;;;;;;1.47;1.07;;;15.30;98.50;;;;;;5103881;28;20519;-73
2022/10/16 05:14:59;;;;;;;1.60;1.40;;;15.30;98.50;;;;;;5108286;28;20524;-73
2022/10/16 05:17:26;;;;;;;4.00;1.40;;;15.30;98.60;;;;;;5089741;28;20497;-74
2022/10/16 05:19:53;;;;;;;3.27;1.40;;;15.40;98.60;;;;;;5092783;28;20472;-74
2022/10/16 05:22:21;;;;;;;2.60;1.43;;;15.40;98.60;;;;;;5095537;28;20440;-74
2022/10/16 05:24:48;;;;;;;2.60;1.50;;;15.40;98.60;;;;;;5095191;28;20478;-78
2022/10/16 05:27:18;;;;;;;4.23;2.10;;;15.40;98.60;;;;;;5094598;28;20467;-74
2022/10/16 05:29:46;;;;;;;1.93;1.70;;;15.40;98.70;;;;;;5093883;28;20487;-73
2022/10/16 05:32:13;;;;;;;4.30;1.50;;;15.30;98.70;;;;;;5094285;28;20445;-73
2022/10/16 05:34:40;;;;;;;2.30;1.63;;;15.30;98.80;;;;;;5094922;28;20464;-73
2022/10/16 05:37:06;;;;;;;1.50;1.30;;;15.30;98.80;;;;;;5104900;28;20860;-73
2022/10/16 05:39:36;;;;;;;3.90;1.53;;;15.30;98.90;;;;;;5102386;28;20488;-74
2022/10/16 05:42:03;;;;;;;2.40;1.70;;;15.30;99.00;;;;;;5109714;28;20487;-74
2022/10/16 05:44:30;;;;;;;1.67;1.57;;;15.30;99.20;;;;;;5095110;28;20451;-73
2022/10/16 05:46:57;;;;;;;9.50;2.87;;;15.30;99.20;;;;;;5093972;28;20475;-73
2022/10/16 05:49:23;;;;;;;4.07;1.77;;;15.30;99.30;;;;;;5101897;28;20492;-73
2022/10/16 05:51:50;;;;;;;2.93;1.70;;;15.30;99.20;;;;;;5115512;28;20507;-73
2022/10/16 05:54:17;;;;;;;4.47;1.77;;;15.30;99.30;;;;;;5108023;28;20441;-74
2022/10/16 05:56:45;;;;;;;2.63;2.20;;;15.30;99.20;;;;;;5096017;28;20474;-73
2022/10/16 05:59:12;;;;;;;5.30;1.50;;;15.30;99.30;;;;;;5095815;28;20487;-73
2022/10/16 06:01:38;;;;;;;4.53;1.50;;;15.30;99.20;;;;;;5095262;28;20495;-73
2022/10/16 06:04:05;;;;;;;4.10;1.93;;;15.40;99.20;;;;;;5095814;28;20461;-74
2022/10/16 06:06:32;;;;;;;4.30;1.73;;;15.30;99.10;;;;;;5095149;28;20463;-73
2022/10/16 06:08:59;;;;;;;3.27;1.50;;;15.30;99.30;;;;;;5096401;28;20476;-74
2022/10/16 06:11:28;;;;;;;3.30;1.60;;;15.30;99.30;;;;;;5095165;28;20457;-74
2022/10/16 06:13:59;;;;;;;7.60;2.03;;;15.30;99.30;;;;;;5094494;28;20524;-74
2022/10/16 06:16:27;;;;;;;4.60;1.70;;;15.30;99.30;;;;;;5094956;28;20478;-73
2022/10/16 06:18:55;;;;;;;3.50;1.87;;;15.30;99.20;;;;;;5098474;28;20474;-73
2022/10/16 06:21:24;;;;;;;2.93;1.87;;;15.20;99.30;;;;;;5095275;28;20488;-73
2022/10/16 06:23:51;;;;;;;3.87;1.67;;;15.30;99.50;;;;;;5096582;28;20472;-73
2022/10/16 06:26:20;;;;;;;2.50;1.83;;;15.30;99.50;;;;;;5101042;28;20467;-73
2022/10/16 06:28:47;;;;;;;2.40;1.50;;;15.40;99.40;;;;;;5097585;28;20480;-74
2022/10/16 06:31:16;;;;;;;3.87;1.90;;;15.40;99.20;;;;;;5103859;28;20447;-74
2022/10/16 06:33:45;;;;;;;3.50;1.30;;;15.40;99.20;;;;;;5114584;28;20446;-74
2022/10/16 06:36:14;;;;;;;2.60;1.30;;;15.40;99.30;;;;;;5113932;28;20504;-74
2022/10/16 06:38:41;;;;;;;1.20;1.10;;;15.40;99.30;;;;;;5104043;28;20494;-73
2022/10/16 06:41:10;;;;;;;2.90;1.43;;;15.40;99.30;;;;;;5098099;28;20488;-74
2022/10/16 06:43:37;;;;;;;6.30;1.60;;;15.40;99.40;;;;;;5107061;28;20444;-73
2022/10/16 06:46:05;;;;;;;3.50;1.97;;;15.50;99.40;;;;;;5107424;28;20461;-73
2022/10/16 06:48:33;;;;;;;8.50;1.90;;;15.60;99.20;;;;;;5095647;28;20444;-73
2022/10/16 06:51:01;;;;;;;2.53;1.60;;;15.70;99.10;;;;;;5095088;28;20473;-73
2022/10/16 06:53:30;;;;;;;6.43;1.93;;;15.70;98.80;;;;;;5094158;28;20453;-73
2022/10/16 06:55:57;;;;;;;2.27;1.70;;;15.70;98.50;;;;;;5101322;28;20468;-76
2022/10/16 06:58:24;;;;;;;5.13;2.30;;;15.80;98.50;;;;;;5091669;28;20460;-73
2022/10/16 07:00:56;;;;;;;2.60;1.40;;;15.70;98.50;;;;;;5092579;28;20476;-74
2022/10/16 07:03:23;;;;;;;1.53;1.43;;;15.70;98.50;;;;;;5098992;28;20464;-73
2022/10/16 07:05:51;;;;;;;1.67;1.40;;;15.70;98.40;;;;;;5110954;28;20464;-73
2022/10/16 07:08:18;;;;;;;1.77;1.10;;;15.70;98.40;;;;;;5110875;28;20478;-73
2022/10/16 07:10:45;;;;;;;1.83;1.17;;;15.70;98.50;;;;;;5104150;28;20484;-74
2022/10/16 07:13:12;;;;;;;1.60;1.50;;;15.70;98.50;;;;;;5108875;28;20460;-74
2022/10/16 07:15:40;;;;;;;3.77;1.47;;;15.70;98.50;;;;;;5098523;28;20488;-75
2022/10/16 07:18:07;;;;;;;4.37;1.60;;;15.70;98.50;;;;;;5092893;28;20449;-75
2022/10/16 07:20:33;;;;;;;2.00;1.80;;;15.70;98.50;;;;;;5093011;28;20476;-74
2022/10/16 07:23:01;;;;;;;2.63;2.00;;;15.70;98.60;;;;;;5093984;28;20460;-74
2022/10/16 07:25:28;;;;;;;3.83;1.87;;;15.70;98.60;;;;;;5094693;28;20433;-73
2022/10/16 07:27:56;;;;;;;3.07;1.60;;;15.70;98.60;;;;;;5079932;28;20581;-74
2022/10/16 07:30:23;;;;;;;2.07;1.57;;;15.70;98.70;;;;;;5088841;28;20490;-73
2022/10/16 07:32:50;;;;;;;5.63;2.00;;;15.70;98.70;;;;;;5093302;28;20449;-73
2022/10/16 07:35:17;;;;;;;2.40;1.40;;;15.70;98.50;;;;;;5092851;28;20433;-72
2022/10/16 07:37:45;;;;;;;2.70;1.60;;;15.70;98.50;;;;;;5091922;28;20437;-72
2022/10/16 07:40:14;;;;;;;2.87;1.97;;;15.70;98.50;;;;;;5091003;28;20505;-72
2022/10/16 07:42:41;;;;;;;2.13;1.63;;;15.70;98.50;;;;;;5093631;28;20488;-72
2022/10/16 07:45:08;;;;;;;3.17;1.77;;;15.70;98.50;;;;;;5092953;28;20447;-72
2022/10/16 07:47:35;;;;;;;1.97;1.77;;;15.70;98.70;;;;;;5093303;28;20451;-72
2022/10/16 07:50:02;;;;;;;4.40;1.90;;;15.70;98.90;;;;;;5093651;28;21113;-72
2022/10/16 07:52:28;;;;;;;2.33;1.40;;;15.70;98.90;;;;;;5094322;28;20451;-72
2022/10/16 07:54:55;;;;;;;3.23;1.83;;;15.80;99.10;;;;;;5091437;28;20441;-72
2022/10/16 07:57:23;;;;;;;2.13;1.40;;;15.80;99.30;;;;;;5093270;28;20453;-73
2022/10/16 07:59:50;;;;;;;4.77;2.13;;;15.80;99.20;;;;;;5094773;28;20531;-72
2022/10/16 08:02:16;;;;;;;5.50;2.07;;;15.90;99.40;;;;;;5094798;28;20468;-73
2022/10/16 08:04:43;;;;;;;2.47;1.37;;;16.00;99.40;;;;;;5094527;28;20440;-72
2022/10/16 08:07:10;;;;;;;7.10;1.80;;;16.00;99.40;;;;;;5094874;28;20452;-73
2022/10/16 08:09:37;;;;;;;3.73;1.60;;;16.10;99.30;;;;;;5094653;28;20473;-73
2022/10/16 08:12:04;;;;;;;6.90;1.90;;;16.10;99.10;;;;;;5095193;28;20437;-72
2022/10/16 08:14:32;;;;;;;3.93;1.40;;;16.20;99.20;;;;;;5095545;28;20455;-73
2022/10/16 08:17:01;;;;;;;5.50;1.63;;;16.20;99.30;;;;;;5095163;28;20496;-73
2022/10/16 08:19:28;;;;;;;2.50;1.30;;;16.20;99.10;;;;;;5094378;28;20469;-73
2022/10/16 08:21:55;;;;;;;5.23;2.10;;;16.30;99.10;;;;;;5086493;28;20481;-72
2022/10/16 08:24:21;;;;;;;4.67;1.13;;;16.30;99.00;;;;;;5081961;28;20456;-72
2022/10/16 08:26:48;;;;;;;5.33;1.50;;;16.40;99.00;;;;;;5089794;28;20460;-72
2022/10/16 08:29:15;;;;;;;2.87;1.20;;;16.50;98.90;;;;;;5091073;28;20465;-72
2022/10/16 08:31:43;;;;;;;3.90;1.43;;;16.50;98.70;;;;;;5091462;28;20445;-73
2022/10/16 08:34:10;;;;;;;3.30;1.33;;;16.60;98.60;;;;;;5094401;28;20445;-73
2022/10/16 08:36:37;;;;;;;6.30;1.50;;;16.60;98.60;;;;;;5094992;28;20425;-73
2022/10/16 08:39:04;;;;;;;2.10;1.00;;;16.70;98.40;;;;;;5090797;28;20453;-75
2022/10/16 08:42:06;;;;;;;2.27;1.17;;;16.80;98.10;;;;;;5096400;28;20514;-74
2022/10/16 08:45:04;;;;;;;4.17;1.20;;;16.80;97.60;;;;;;5084452;28;20444;-74
2022/10/16 08:47:45;;;;;;;1.93;0.83;;;16.90;97.40;;;;;;5097014;28;20473;-74
2022/10/16 08:50:15;;;;;;;2.30;0.90;;;16.90;97.00;;;;;;5096334;28;20487;-75
2022/10/16 09:33:11;;;;;;;3.23;0.93;;;18.00;93.50;;;;;;5096229;28;20404;-72
2022/10/16 09:49:34;;;;;;;1.60;0.70;;;18.50;91.10;;;;;;5096041;28;20412;-74
2022/10/16 09:52:05;;;;;;;5.60;0.70;;;18.60;91.70;;;;;;5097253;28;20425;-73
2022/10/16 09:54:32;;;;;;;3.23;0.60;;;18.70;89.20;;;;;;5097281;28;20445;-73
2022/10/16 09:57:06;;;;;;;1.17;0.73;;;18.70;88.70;;;;;;5096889;28;20437;-73
2022/10/16 09:59:33;;;;;;;1.30;0.80;;;18.60;88.90;;;;;;5094927;28;20453;-74
2022/10/16 10:02:04;;;;;;;2.63;1.00;;;18.70;89.80;;;;;;5097011;28;20468;-73
2022/10/16 10:04:42;;;;;;;1.20;0.73;;;18.90;90.10;;;;;;5095368;28;20448;-73
2022/10/16 10:07:19;;;;;;;2.67;0.70;;;19.20;88.40;;;;;;5095328;28;20447;-73
2022/10/16 10:09:47;;;;;;;2.13;0.87;;;19.50;85.70;;;;;;5096499;28;20465;-73
2022/10/16 10:12:22;;;;;;;3.07;1.00;;;19.90;83.10;;;;;;5097639;28;20904;-73
2022/10/16 10:14:51;;;;;;;1.30;0.60;;;20.30;81.40;;;;;;5096256;28;20455;-74
2022/10/16 10:17:20;;;;;;;3.00;0.50;;;20.60;79.20;;;;;;5093537;28;20448;-74
2022/10/16 10:19:54;;;;;;;10.10;0.80;;;20.80;76.80;;;;;;5095089;28;20464;-74
2022/10/16 10:22:31;;;;;;;1.20;0.80;;;20.90;75.40;;;;;;5090178;28;20465;-74
2022/10/16 10:25:26;;;;;;;1.50;0.83;;;20.70;73.70;;;;;;5090359;28;20442;-73
2022/10/16 10:28:34;;;;;;;1.63;0.80;;;20.70;75.10;;;;;;5091958;28;20430;-73
2022/10/16 10:31:10;;;;;;;3.40;1.30;;;20.70;75.30;;;;;;5094218;28;20456;-73
2022/10/16 10:33:44;;;;;;;1.27;0.70;;;21.00;73.80;;;;;;5094962;28;20512;-73
2022/10/16 10:36:23;;;;;;;1.23;0.67;;;21.40;73.10;;;;;;5094263;28;20433;-73
2022/10/16 10:38:54;;;;;;;2.27;0.63;;;21.60;73.40;;;;;;5092940;28;20421;-74
2022/10/16 10:41:42;;;;;;;1.50;0.60;;;21.80;70.60;;;;;;5094546;28;20488;-74
2022/10/16 10:44:16;;;;;;;4.10;1.80;;;22.10;70.90;;;;;;5092698;28;20473;-73
2022/10/16 10:46:50;;;;;;;2.40;1.10;;;22.80;70.40;;;;;;5095142;28;20421;-73
2022/10/16 10:49:37;;;;;;;1.87;0.70;;;23.30;65.70;;;;;;5082626;28;20471;-73
2022/10/16 10:52:27;;;;;;;0.90;0.70;;;23.80;61.70;;;;;;5076184;28;20437;-72
2022/10/16 10:54:59;;;;;;;1.40;0.60;;;24.10;59.40;;;;;;5077606;28;20445;-73
2022/10/16 10:57:29;;;;;;;1.33;0.70;;;24.50;58.70;;;;;;5078522;28;20433;-72
2022/10/16 11:00:09;;;;;;;0.80;0.50;;;25.00;56.80;;;;;;5078602;28;20480;-72
2022/10/16 11:02:40;;;;;;;2.23;0.63;;;25.60;53.60;;;;;;5078326;28;20465;-72
2022/10/16 11:05:42;;;;;;;2.20;0.77;;;26.10;52.30;;;;;;5076134;28;20440;-72
2022/10/16 11:08:17;;;;;;;2.10;0.80;;;26.50;51.10;;;;;;5073860;28;20457;-72
2022/10/16 11:10:53;;;;;;;2.43;0.77;;;27.00;49.80;;;;;;5076825;28;20874;-72
2022/10/16 11:13:34;;;;;;;2.63;0.87;;;27.40;49.00;;;;;;5076075;28;20432;-73
2022/10/16 11:16:08;;;;;;;3.03;0.63;;;27.70;47.50;;;;;;5077734;28;20437;-73
2022/10/16 11:18:45;;;;;;;2.70;0.60;;;28.10;46.90;;;;;;5077792;28;20424;-73
2022/10/16 11:21:15;;;;;;;1.83;0.80;;;28.40;44.20;;;;;;5077993;28;20491;-73
2022/10/16 11:23:52;;;;;;;1.90;0.70;;;28.70;42.80;;;;;;5076144;28;20875;-73
2022/10/16 11:26:24;;;;;;;2.80;0.70;;;29.10;42.80;;;;;;5075611;28;20456;-74
2022/10/16 11:28:55;;;;;;;2.37;0.73;;;29.30;41.80;;;;;;5075067;28;20531;-72
2022/10/16 11:31:31;;;;;;;3.13;1.00;;;29.20;42.30;;;;;;5074260;28;20630;-72
2022/10/16 11:34:03;;;;;;;6.17;0.80;;;29.00;41.70;;;;;;5074444;28;20433;-73
2022/10/16 11:36:36;;;;;;;1.07;0.67;;;28.80;41.60;;;;;;5074212;28;20468;-72
2022/10/16 11:39:13;;;;;;;1.77;0.60;;;28.50;42.40;;;;;;5074490;28;20774;-72
2022/10/16 11:41:45;;;;;;;4.73;0.90;;;28.40;42.40;;;;;;5074180;28;20464;-72
2022/10/16 11:44:21;;;;;;;2.90;0.87;;;28.30;43.10;;;;;;5074239;28;20456;-73
2022/10/16 11:46:54;;;;;;;2.57;0.90;;;28.20;43.30;;;;;;5074838;28;20432;-73
2022/10/16 11:49:25;;;;;;;2.33;0.70;;;28.30;43.60;;;;;;5074663;28;20469;-72
2022/10/16 11:52:00;;;;;;;0.83;0.53;;;28.90;42.50;;;;;;5074507;28;20479;-74
2022/10/16 11:54:36;;;;;;;2.60;1.03;;;29.30;41.50;;;;;;5074717;28;20804;-72
2022/10/16 11:57:10;;;;;;;3.40;0.83;;;29.60;38.70;;;;;;5074813;28;20435;-71
2022/10/16 11:59:44;;;;;;;1.23;0.60;;;29.90;39.60;;;;;;5074803;28;20500;-70
2022/10/16 12:02:34;;;;;;;2.23;0.90;;;30.40;39.00;;;;;;5076855;28;20480;-72
2022/10/16 12:05:15;;;;;;;1.67;0.70;;;30.50;37.00;;;;;;5078161;28;20432;-72
2022/10/16 12:07:49;;;;;;;2.00;0.60;;;30.00;37.70;;;;;;5075456;28;20440;-72
2022/10/16 12:10:24;;;;;;;3.00;0.60;;;30.10;38.30;;;;;;5074336;28;20482;-72
2022/10/16 12:12:51;;;;;;;1.33;0.50;;;30.40;37.10;;;;;;5074003;28;20420;-72
2022/10/16 12:15:24;;;;;;;2.20;0.90;;;30.60;37.80;;;;;;5074509;28;20449;-72
2022/10/16 12:17:52;;;;;;;1.70;0.67;;;30.80;37.30;;;;;;5076193;28;20435;-73
2022/10/16 12:20:30;;;;;;;2.30;0.60;;;31.00;36.30;;;;;;5076088;28;20468;-72
2022/10/16 12:22:59;;;;;;;2.70;0.70;;;31.00;35.80;;;;;;5077793;28;20514;-72
2022/10/16 12:25:29;;;;;;;1.87;0.90;;;31.20;35.80;;;;;;5077149;28;20455;-73
2022/10/16 12:27:58;;;;;;;1.00;0.43;;;31.60;34.00;;;;;;5081055;28;20784;-73
2022/10/16 12:30:27;;;;;;;1.97;0.80;;;31.90;33.80;;;;;;5080969;28;20467;-72
2022/10/16 12:32:56;;;;;;;1.50;0.80;;;32.40;34.00;;;;;;5081357;28;20440;-72
2022/10/16 12:35:25;;;;;;;1.53;0.80;;;32.70;32.40;;;;;;5080536;28;20455;-74
2022/10/16 12:37:53;;;;;;;2.13;0.53;;;32.70;32.90;;;;;;5078777;28;20450;-73
2022/10/16 12:40:33;;;;;;;2.90;1.07;;;32.50;33.50;;;;;;5079119;28;20483;-73
2022/10/16 12:43:00;;;;;;;4.73;0.70;;;32.10;33.60;;;;;;5078551;28;20483;-73
2022/10/16 12:45:30;;;;;;;2.30;0.70;;;31.70;33.30;;;;;;5078166;28;20460;-73
2022/10/16 12:47:58;;;;;;;1.97;0.60;;;31.20;34.80;;;;;;5078081;28;20785;-73
2022/10/16 12:50:33;;;;;;;1.83;1.00;;;30.70;36.00;;;;;;5078336;28;20475;-73
2022/10/16 12:53:02;;;;;;;1.43;0.50;;;30.10;35.90;;;;;;5077797;28;20877;-72
2022/10/16 12:55:43;;;;;;;3.67;0.70;;;29.60;36.80;;;;;;5078267;28;20448;-74
2022/10/16 12:58:22;;;;;;;2.00;0.60;;;29.20;38.20;;;;;;5077993;28;20433;-72
2022/10/16 13:00:56;;;;;;;1.30;0.63;;;29.10;38.40;;;;;;5079018;28;20480;-72
2022/10/16 13:04:00;;;;;;;1.13;0.40;;;29.60;37.50;;;;;;5078201;28;20473;-72
2022/10/16 13:06:35;;;;;;;2.37;0.73;;;30.20;36.70;;;;;;5078814;28;20432;-73
2022/10/16 13:09:39;;;;;;;1.47;0.50;;;30.70;36.60;;;;;;5078192;28;20440;-72
2022/10/16 13:12:21;;;;;;;2.40;0.50;;;31.50;35.10;;;;;;5077438;28;20813;-73
2022/10/16 13:15:09;;;;;;;0.90;0.40;;;32.10;33.30;;;;;;5076948;28;20447;-73
2022/10/16 13:17:46;;;;;;;0.63;0.50;;;31.90;32.80;;;;;;5077464;28;20487;-74
2022/10/16 13:20:22;;;;;;;0.90;0.47;;;32.10;33.70;;;;;;5078174;28;20986;-74
2022/10/16 13:22:57;;;;;;;2.20;0.70;;;32.80;33.30;;;;;;5078648;28;20468;-74
2022/10/16 13:25:34;;;;;;;4.10;0.70;;;33.60;31.10;;;;;;5078315;28;20439;-73
2022/10/16 13:28:04;;;;;;;5.77;0.80;;;34.40;30.60;;;;;;5077939;28;20436;-73
2022/10/16 13:30:34;;;;;;;1.47;0.60;;;35.10;30.00;;;;;;5077713;28;20476;-72
2022/10/16 13:33:03;;;;;;;1.07;0.60;;;35.60;29.00;;;;;;5078515;28;20187;-74
2022/10/16 13:35:31;;;;;;;2.05;0.60;;;35.90;28.10;;;;;;5077631;28;20190;-73
2022/10/16 13:38:13;;;;;;;3.00;0.97;;;36.10;27.90;;;;;;5077982;28;20209;-73
2022/10/16 13:40:54;;;;;;;3.53;0.80;;;35.90;26.90;;;;;;5076906;28;20225;-74
2022/10/16 13:43:25;;;;;;;2.73;0.80;;;35.40;27.90;;;;;;5077243;28;20202;-74
2022/10/16 13:45:57;;;;;;;1.67;0.77;;;34.90;28.10;;;;;;5076807;28;20195;-74
2022/10/16 13:48:24;;;;;;;3.90;0.50;;;34.70;28.70;;;;;;5077574;28;20460;-73
2022/10/16 13:51:02;;;;;;;2.67;0.70;;;34.10;29.40;;;;;;5076902;28;20479;-74
2022/10/16 13:53:32;;;;;;;1.13;0.60;;;33.30;30.70;;;;;;5076343;28;20904;-74
2022/10/16 13:56:00;;;;;;;1.43;0.70;;;32.40;31.70;;;;;;5076184;28;20502;-73
2022/10/16 13:58:28;;;;;;;0.70;0.50;;;31.70;32.60;;;;;;5076967;28;20514;-74